createdAt,value
2023-01-23T00:01:33.769Z,13.00
2023-01-23T00:04:03.183Z,10.50
2023-01-23T00:06:30.411Z,12.20
2023-01-23T00:08:58.209Z,14.50
2023-01-23T00:11:28.080Z,13.80
2023-01-23T00:13:57.032Z,13.50
2023-01-23T00:16:28.214Z,11.80
2023-01-23T00:18:56.274Z,8.70
2023-01-23T00:21:26.833Z,14.40
2023-01-23T00:23:56.211Z,10.50
2023-01-23T00:26:28.695Z,12.40
2023-01-23T00:28:56.377Z,11.70
2023-01-23T00:31:27.420Z,12.10
2023-01-23T00:33:59.562Z,8.30
2023-01-23T00:36:32.753Z,11.60
2023-01-23T00:39:02.567Z,10.50
2023-01-23T00:41:30.702Z,13.40
2023-01-23T00:43:58.519Z,11.80
2023-01-23T00:46:26.095Z,8.90
2023-01-23T00:48:53.472Z,10.90
2023-01-23T00:51:20.753Z,13.70
2023-01-23T00:53:48.576Z,14.10
2023-01-23T00:56:15.980Z,11.90
2023-01-23T00:58:45.231Z,10.00
2023-01-23T01:01:15.998Z,9.60
2023-01-23T01:03:44.456Z,8.50
2023-01-23T01:06:12.390Z,8.10
2023-01-23T01:08:39.817Z,10.90
2023-01-23T01:11:08.624Z,9.70
2023-01-23T01:13:36.376Z,11.30
2023-01-23T01:16:03.916Z,7.90
2023-01-23T01:18:33.254Z,7.50
2023-01-23T01:21:00.714Z,8.90
2023-01-23T01:23:27.941Z,10.70
2023-01-23T01:25:59.514Z,11.70
2023-01-23T01:28:30.538Z,10.40
2023-01-23T01:30:58.875Z,10.60
2023-01-23T01:33:28.402Z,7.60
2023-01-23T01:35:57.533Z,8.80
2023-01-23T01:38:25.560Z,8.40
2023-01-23T01:40:53.421Z,9.50
2023-01-23T01:43:24.308Z,8.80
2023-01-23T01:46:25.546Z,8.20
2023-01-23T01:49:10.940Z,8.50
2023-01-23T01:51:55.431Z,10.60
2023-01-23T01:54:40.764Z,8.20
2023-01-23T01:57:18.949Z,8.20
2023-01-23T01:59:55.406Z,8.00
2023-01-23T02:02:27.250Z,7.00
2023-01-23T02:05:07.289Z,6.90
2023-01-23T02:08:13.358Z,8.10
2023-01-23T02:10:43.715Z,9.30
2023-01-23T02:13:28.933Z,9.50
2023-01-23T02:15:59.472Z,7.60
2023-01-23T02:18:29.711Z,7.10
2023-01-23T02:21:00.485Z,8.80
2023-01-23T02:24:05.013Z,10.70
2023-01-23T02:26:44.773Z,9.20
2023-01-23T02:29:14.432Z,8.70
2023-01-23T02:31:49.328Z,8.00
2023-01-23T02:34:16.728Z,7.30
2023-01-23T02:36:47.851Z,10.50
2023-01-23T02:39:18.791Z,9.50
2023-01-23T02:41:51.648Z,10.40
2023-01-23T02:44:28.491Z,10.30
2023-01-23T02:47:05.251Z,7.90
2023-01-23T02:49:32.747Z,7.90
2023-01-23T02:52:00.135Z,10.10
2023-01-23T02:54:28.260Z,9.80
2023-01-23T02:56:57.926Z,9.40
2023-01-23T02:59:44.423Z,10.50
2023-01-23T03:02:14.028Z,8.80
2023-01-23T03:04:41.749Z,7.20
2023-01-23T03:07:09.089Z,12.40
2023-01-23T03:09:36.677Z,10.60
2023-01-23T03:12:05.383Z,10.90
2023-01-23T03:14:34.565Z,7.80
2023-01-23T03:17:01.790Z,7.30
2023-01-23T03:19:31.899Z,9.10
2023-01-23T03:22:00.048Z,10.00
2023-01-23T03:24:28.075Z,9.20
2023-01-23T03:26:57.558Z,7.60
2023-01-23T03:29:45.234Z,7.60
2023-01-23T03:32:16.054Z,6.40
2023-01-23T03:34:44.164Z,9.30
2023-01-23T03:37:12.695Z,10.60
2023-01-23T03:39:59.532Z,8.70
2023-01-23T03:42:27.827Z,10.30
2023-01-23T03:44:58.078Z,8.60
2023-01-23T03:47:28.401Z,7.30
2023-01-23T03:49:56.064Z,7.90
2023-01-23T03:52:25.574Z,8.90
2023-01-23T03:54:53.512Z,8.20
2023-01-23T03:57:21.715Z,8.30
2023-01-23T04:00:11.752Z,6.80
2023-01-23T04:02:44.169Z,7.50
2023-01-23T04:05:13.573Z,9.10
2023-01-23T04:07:40.776Z,8.40
2023-01-23T04:10:13.055Z,8.80
2023-01-23T04:12:43.023Z,8.30
2023-01-23T04:15:11.843Z,7.80
2023-01-23T04:17:42.118Z,7.10
2023-01-23T04:20:12.041Z,9.40
2023-01-23T04:22:40.941Z,10.80
2023-01-23T04:25:09.933Z,9.20
2023-01-23T04:27:37.277Z,9.60
2023-01-23T04:30:06.645Z,9.00
2023-01-23T04:32:35.285Z,7.30
2023-01-23T04:35:05.453Z,5.80
2023-01-23T04:37:33.556Z,8.30
2023-01-23T04:40:00.751Z,7.60
2023-01-23T04:42:30.081Z,9.80
2023-01-23T04:45:07.374Z,10.30
2023-01-23T04:47:55.066Z,10.00
2023-01-23T04:50:23.800Z,7.30
2023-01-23T04:52:52.419Z,6.10
2023-01-23T04:55:23.020Z,9.00
2023-01-23T04:57:51.107Z,8.70
2023-01-23T05:00:25.731Z,7.70
2023-01-23T05:02:54.678Z,8.60
2023-01-23T05:05:24.271Z,8.60
2023-01-23T05:07:53.250Z,6.60
2023-01-23T05:10:21.466Z,8.10
2023-01-23T05:12:49.407Z,10.40
2023-01-23T05:15:18.215Z,11.40
2023-01-23T05:17:48.826Z,10.50
2023-01-23T05:20:16.632Z,11.20
2023-01-23T05:22:53.746Z,10.00
2023-01-23T05:25:28.626Z,11.60
2023-01-23T05:27:56.316Z,12.50
2023-01-23T05:30:23.868Z,10.10
2023-01-23T05:32:53.591Z,11.20
2023-01-23T05:35:22.170Z,10.50
2023-01-23T05:37:52.459Z,9.10
2023-01-23T05:40:22.908Z,7.20
2023-01-23T05:43:14.969Z,9.20
2023-01-23T05:46:02.607Z,10.90
2023-01-23T05:48:52.128Z,8.60
2023-01-23T05:51:22.145Z,11.80
2023-01-23T05:53:49.992Z,9.50
2023-01-23T05:56:18.192Z,8.00
2023-01-23T05:59:05.279Z,9.30
2023-01-23T06:01:47.577Z,10.50
2023-01-23T06:04:17.519Z,10.50
2023-01-23T06:06:54.970Z,10.20
2023-01-23T06:09:23.778Z,9.30
2023-01-23T06:11:50.925Z,8.40
2023-01-23T06:14:18.865Z,8.20
2023-01-23T06:16:46.609Z,10.40
2023-01-23T06:19:13.796Z,11.10
2023-01-23T06:21:41.264Z,9.10
2023-01-23T06:24:11.781Z,11.50
2023-01-23T06:26:40.546Z,8.60
2023-01-23T06:29:07.857Z,8.40
2023-01-23T06:31:38.122Z,9.90
2023-01-23T06:34:11.256Z,9.30
2023-01-23T06:37:11.080Z,10.90
2023-01-23T06:39:40.672Z,11.10
2023-01-23T06:42:10.263Z,8.50
2023-01-23T06:44:40.535Z,12.30
2023-01-23T06:47:09.029Z,12.40
2023-01-23T06:49:36.662Z,11.00
2023-01-23T06:52:04.325Z,10.50
2023-01-23T06:54:31.533Z,10.80
2023-01-23T06:57:01.299Z,9.80
2023-01-23T06:59:29.047Z,12.50
2023-01-23T07:01:57.065Z,10.80
2023-01-23T07:04:33.545Z,10.60
2023-01-23T07:07:00.760Z,12.70
2023-01-23T07:09:29.175Z,7.70
2023-01-23T07:12:04.642Z,11.50
2023-01-23T07:14:31.935Z,10.30
2023-01-23T07:16:59.529Z,10.50
2023-01-23T07:19:26.837Z,10.70
2023-01-23T07:21:55.095Z,12.40
2023-01-23T07:24:22.289Z,12.20
2023-01-23T07:26:49.370Z,10.10
2023-01-23T07:29:16.489Z,12.80
2023-01-23T07:31:43.778Z,11.70
2023-01-23T07:34:11.230Z,13.00
2023-01-23T07:36:38.366Z,12.20
2023-01-23T07:39:05.539Z,10.50
2023-01-23T07:41:32.738Z,9.90
2023-01-23T07:44:02.798Z,10.70
2023-01-23T07:46:30.026Z,13.30
2023-01-23T07:48:57.474Z,11.90
2023-01-23T07:51:24.697Z,11.40
2023-01-23T07:53:52.492Z,10.60
2023-01-23T07:56:19.650Z,12.10
2023-01-23T07:58:50.674Z,12.40
2023-01-23T08:01:19.025Z,11.90
2023-01-23T08:03:47.230Z,9.60
2023-01-23T08:06:14.859Z,11.40
2023-01-23T08:08:41.984Z,9.60
2023-01-23T08:11:11.403Z,8.10
2023-01-23T08:13:39.550Z,11.20
2023-01-23T08:16:07.487Z,14.40
2023-01-23T08:18:34.630Z,10.50
2023-01-23T08:21:03.679Z,12.90
2023-01-23T08:23:33.606Z,11.00
2023-01-23T08:26:04.046Z,9.50
2023-01-23T08:28:31.255Z,12.80
2023-01-23T08:31:06.192Z,14.30
2023-01-23T08:33:35.748Z,12.30
2023-01-23T08:36:04.831Z,13.00
2023-01-23T08:38:32.549Z,11.00
2023-01-23T08:41:03.263Z,9.70
2023-01-23T08:43:31.214Z,15.80
2023-01-23T08:45:59.670Z,12.40
2023-01-23T08:48:28.460Z,13.70
2023-01-23T08:51:05.481Z,10.10
2023-01-23T08:53:33.887Z,12.00
2023-01-23T08:56:16.565Z,10.40
2023-01-23T08:58:45.288Z,11.80
2023-01-23T09:01:22.686Z,11.30
2023-01-23T09:03:50.315Z,11.80
2023-01-23T09:06:19.890Z,11.50
2023-01-23T09:08:47.666Z,8.30
2023-01-23T09:11:16.571Z,10.70
2023-01-23T09:13:46.336Z,10.60
2023-01-23T09:16:15.042Z,13.20
2023-01-23T09:18:42.341Z,12.20
2023-01-23T09:21:12.730Z,12.00
2023-01-23T09:23:40.853Z,9.90
2023-01-23T09:26:11.680Z,12.80
2023-01-23T09:28:42.269Z,10.90
2023-01-23T09:31:12.744Z,11.50
2023-01-23T09:33:40.980Z,13.50
2023-01-23T09:36:10.030Z,13.00
2023-01-23T09:38:38.854Z,9.50
2023-01-23T09:41:20.781Z,11.50
2023-01-23T09:44:11.905Z,11.80
2023-01-23T09:50:07.518Z,10.80
2023-01-23T09:53:02.061Z,12.40
2023-01-23T09:56:18.516Z,10.70
2023-01-23T09:59:37.597Z,11.50
2023-01-23T10:02:26.784Z,12.60
2023-01-23T10:05:04.969Z,13.30
2023-01-23T10:08:10.202Z,12.40
2023-01-23T10:29:55.927Z,13.50
2023-01-23T10:36:54.071Z,16.80
2023-01-23T10:40:09.534Z,13.00
2023-01-23T10:42:47.861Z,14.50
2023-01-23T10:45:30.095Z,11.40
2023-01-23T10:48:47.441Z,15.40
2023-01-23T10:51:29.527Z,14.50
2023-01-23T10:54:31.835Z,13.60
2023-01-23T10:57:04.920Z,13.80
2023-01-23T11:00:09.934Z,13.00
2023-01-23T11:02:52.292Z,16.20
2023-01-23T11:05:52.585Z,15.90
2023-01-23T11:08:30.118Z,13.30
2023-01-23T11:11:31.133Z,14.80
2023-01-23T11:14:27.275Z,11.30
2023-01-23T11:17:34.936Z,11.30
2023-01-23T11:20:25.718Z,16.10
2023-01-23T11:26:38.353Z,13.70
2023-01-23T12:13:35.021Z,17.10
2023-01-23T12:32:11.470Z,17.50
2023-01-23T12:35:07.830Z,12.80
2023-01-23T12:37:54.733Z,16.10
2023-01-23T12:40:34.773Z,17.70
2023-01-23T12:43:18.298Z,15.00
2023-01-23T12:45:52.715Z,16.60
2023-01-23T12:48:30.942Z,17.60
2023-01-23T12:51:10.238Z,15.50
2023-01-23T12:53:43.733Z,17.60
2023-01-23T12:56:17.595Z,17.10
2023-01-23T12:58:54.209Z,15.40
2023-01-23T13:01:42.613Z,17.60
2023-01-23T13:04:23.895Z,16.90
2023-01-23T13:06:54.508Z,16.50
2023-01-23T13:09:51.554Z,16.20
2023-01-23T13:12:25.779Z,17.90
2023-01-23T13:15:30.934Z,18.10
2023-01-23T13:18:03.416Z,20.00
2023-01-23T13:20:55.836Z,19.20
2023-01-23T13:23:43.571Z,17.10
2023-01-23T13:26:16.931Z,18.30
2023-01-23T13:28:56.100Z,18.50
2023-01-23T13:31:34.849Z,17.00
2023-01-23T13:34:24.366Z,16.60
2023-01-23T13:36:53.655Z,18.50
2023-01-23T13:39:27.354Z,15.50
2023-01-23T13:42:15.645Z,15.90
2023-01-23T13:45:26.790Z,17.80
2023-01-23T14:20:18.813Z,17.70
2023-01-23T14:22:46.092Z,19.10
2023-01-23T14:25:18.129Z,19.60
2023-01-23T14:27:53.670Z,14.80
2023-01-23T14:30:27.539Z,16.70
2023-01-23T14:32:56.244Z,18.90
2023-01-23T14:35:32.715Z,20.10
2023-01-23T14:38:06.839Z,17.20
2023-01-23T14:40:49.400Z,16.40
2023-01-23T14:43:24.960Z,13.60
2023-01-23T14:46:01.904Z,12.30
2023-01-23T14:48:35.546Z,15.90
2023-01-23T14:51:07.949Z,17.90
2023-01-23T14:53:40.353Z,19.20
2023-01-23T14:56:11.261Z,14.20
2023-01-23T14:58:39.668Z,16.40
2023-01-23T15:01:07.018Z,15.20
2023-01-23T15:03:40.960Z,19.20
2023-01-23T15:06:14.917Z,19.20
2023-01-23T15:08:43.437Z,19.60
2023-01-23T15:11:12.689Z,29.30
2023-01-23T15:13:41.959Z,13.50
2023-01-23T15:16:20.094Z,11.60
2023-01-23T15:19:01.629Z,18.30
2023-01-23T15:21:32.282Z,18.60
2023-01-23T15:24:03.474Z,16.80
2023-01-23T15:26:36.267Z,19.00
2023-01-23T15:29:09.480Z,14.10
2023-01-23T15:31:39.172Z,11.20
2023-01-23T15:34:16.534Z,17.40
2023-01-23T15:36:49.760Z,18.40
2023-01-23T15:39:58.567Z,14.00
2023-01-23T15:42:37.727Z,17.90
2023-01-23T15:45:14.965Z,12.60
2023-01-23T15:47:43.342Z,15.30
2023-01-23T15:50:14.731Z,17.60
2023-01-23T15:52:46.792Z,18.50
2023-01-23T15:55:16.344Z,17.30
2023-01-23T15:57:45.015Z,18.00
2023-01-23T16:00:20.650Z,12.10
2023-01-23T16:02:56.873Z,16.60
2023-01-23T16:05:30.031Z,20.20
2023-01-23T16:08:06.332Z,19.10
2023-01-23T16:10:45.289Z,18.70
2023-01-23T16:13:14.773Z,19.90
2023-01-23T16:15:46.216Z,15.80
2023-01-23T16:18:14.698Z,19.70
2023-01-23T16:20:45.410Z,20.60
2023-01-23T16:23:20.806Z,18.50
2023-01-23T16:25:50.773Z,19.10
2023-01-23T16:28:21.560Z,16.60
2023-01-23T16:30:51.665Z,16.90
2023-01-23T16:33:20.766Z,16.80
2023-01-23T16:35:52.005Z,19.70
2023-01-23T16:38:28.645Z,19.70
2023-01-23T16:40:59.751Z,17.00
2023-01-23T16:43:27.918Z,19.10
2023-01-23T16:45:57.262Z,14.60
2023-01-23T16:48:28.249Z,14.80
2023-01-23T16:51:04.978Z,19.20
2023-01-23T16:53:40.265Z,18.30
2023-01-23T16:56:22.213Z,22.40
2023-01-23T16:58:51.051Z,18.00
2023-01-23T17:01:23.385Z,14.00
2023-01-23T17:04:05.293Z,19.20
2023-01-23T17:06:32.780Z,21.00
2023-01-23T17:09:01.478Z,20.00
2023-01-23T17:11:36.572Z,19.20
2023-01-23T17:17:52.642Z,19.40
2023-01-23T17:20:32.743Z,19.80
2023-01-23T17:23:19.028Z,18.80
2023-01-23T17:26:01.525Z,21.40
2023-01-23T17:28:49.928Z,16.30
2023-01-23T17:31:31.044Z,17.90
2023-01-23T17:34:45.139Z,22.60
2023-01-23T17:40:49.289Z,23.30
